sensor_id;sensor_type;location;lat;lon;timestamp;pressure;altitude;pressure_sealevel;temperature;humidity
5814;BME280;2933;52.302;8.134;2022-12-07T00:00:07;100473.91;;;2.87;100.00
5814;BME280;2933;52.302;8.134;2022-12-07T00:05:09;100479.75;;;2.94;100.00
5814;BME280;2933;52.302;8.134;2022-12-07T00:10:12;100478.72;;;3.00;100.00
5814;BME280;2933;52.302;8.134;2022-12-07T00:15:13;100439.00;;;2.75;100.00
5814;BME280;2933;52.302;8.134;2022-12-07T00:20:15;100455.03;;;2.85;100.00
5814;BME280;2933;52.302;8.134;2022-12-07T00:25:18;100444.03;;;2.80;100.00
5814;BME280;2933;52.302;8.134;2022-12-07T00:30:19;100452.53;;;2.84;100.00
5814;BME280;2933;52.302;8.134;2022-12-07T00:35:21;100435.41;;;2.81;100.00
5814;BME280;2933;52.302;8.134;2022-12-07T00:40:24;100438.00;;;2.80;100.00
5814;BME280;2933;52.302;8.134;2022-12-07T00:45:26;100405.41;;;2.47;100.00
5814;BME280;2933;52.302;8.134;2022-12-07T00:50:30;100438.34;;;2.69;100.00
5814;BME280;2933;52.302;8.134;2022-12-07T00:55:34;100441.16;;;2.61;100.00
5814;BME280;2933;52.302;8.134;2022-12-07T01:00:37;100414.53;;;2.59;100.00
5814;BME280;2933;52.302;8.134;2022-12-07T01:05:39;100436.09;;;2.56;100.00
5814;BME280;2933;52.302;8.134;2022-12-07T01:10:42;100432.84;;;2.50;100.00
5814;BME280;2933;52.302;8.134;2022-12-07T01:15:44;100424.56;;;2.38;100.00
5814;BME280;2933;52.302;8.134;2022-12-07T01:20:57;100430.53;;;2.40;100.00
5814;BME280;2933;52.302;8.134;2022-12-07T01:26:05;100398.41;;;2.21;100.00
5814;BME280;2933;52.302;8.134;2022-12-07T01:31:09;100437.56;;;2.35;100.00
5814;BME280;2933;52.302;8.134;2022-12-07T01:36:14;100444.34;;;2.38;100.00
5814;BME280;2933;52.302;8.134;2022-12-07T01:41:18;100444.97;;;2.46;100.00
5814;BME280;2933;52.302;8.134;2022-12-07T01:46:20;100446.97;;;2.36;100.00
5814;BME280;2933;52.302;8.134;2022-12-07T01:51:22;100445.13;;;2.41;100.00
5814;BME280;2933;52.302;8.134;2022-12-07T01:56:26;100446.00;;;2.40;100.00
5814;BME280;2933;52.302;8.134;2022-12-07T02:01:29;100454.56;;;2.42;100.00
5814;BME280;2933;52.302;8.134;2022-12-07T02:06:31;100446.06;;;2.37;100.00
5814;BME280;2933;52.302;8.134;2022-12-07T02:11:34;100419.09;;;2.19;100.00
5814;BME280;2933;52.302;8.134;2022-12-07T02:16:51;100417.44;;;2.17;100.00
5814;BME280;2933;52.302;8.134;2022-12-07T02:22:15;100380.28;;;1.92;100.00
5814;BME280;2933;52.302;8.134;2022-12-07T02:27:45;100413.50;;;2.03;100.00
5814;BME280;2933;52.302;8.134;2022-12-07T02:33:05;100383.16;;;1.82;100.00
5814;BME280;2933;52.302;8.134;2022-12-07T02:38:13;100432.41;;;2.02;100.00
5814;BME280;2933;52.302;8.134;2022-12-07T02:43:23;100418.75;;;1.99;100.00
5814;BME280;2933;52.302;8.134;2022-12-07T02:48:28;100417.38;;;1.87;100.00
5814;BME280;2933;52.302;8.134;2022-12-07T02:53:34;100392.88;;;1.70;100.00
5814;BME280;2933;52.302;8.134;2022-12-07T02:58:49;100400.75;;;1.64;100.00
5814;BME280;2933;52.302;8.134;2022-12-07T03:03:58;100413.66;;;1.63;100.00
5814;BME280;2933;52.302;8.134;2022-12-07T03:09:12;100406.97;;;1.57;100.00
5814;BME280;2933;52.302;8.134;2022-12-07T03:14:19;100408.03;;;1.48;100.00
5814;BME280;2933;52.302;8.134;2022-12-07T03:19:27;100416.53;;;1.52;100.00
5814;BME280;2933;52.302;8.134;2022-12-07T03:24:35;100427.03;;;1.42;100.00
5814;BME280;2933;52.302;8.134;2022-12-07T03:29:40;100415.00;;;1.43;100.00
5814;BME280;2933;52.302;8.134;2022-12-07T03:34:52;100403.19;;;1.34;100.00
5814;BME280;2933;52.302;8.134;2022-12-07T03:40:03;100388.19;;;1.16;100.00
5814;BME280;2933;52.302;8.134;2022-12-07T03:45:09;100392.22;;;1.27;100.00
5814;BME280;2933;52.302;8.134;2022-12-07T03:50:25;100376.09;;;1.21;100.00
5814;BME280;2933;52.302;8.134;2022-12-07T03:55:36;100392.16;;;1.29;100.00
5814;BME280;2933;52.302;8.134;2022-12-07T04:00:46;100396.38;;;1.33;100.00
5814;BME280;2933;52.302;8.134;2022-12-07T04:05:52;100387.31;;;1.18;100.00
5814;BME280;2933;52.302;8.134;2022-12-07T04:11:01;100394.09;;;1.21;100.00
5814;BME280;2933;52.302;8.134;2022-12-07T04:16:04;100398.34;;;1.22;100.00
5814;BME280;2933;52.302;8.134;2022-12-07T04:21:21;100398.31;;;1.23;100.00
5814;BME280;2933;52.302;8.134;2022-12-07T04:26:23;100415.00;;;1.43;100.00
5814;BME280;2933;52.302;8.134;2022-12-07T04:31:26;100401.41;;;1.38;100.00
5814;BME280;2933;52.302;8.134;2022-12-07T04:36:33;100376.72;;;1.29;100.00
5814;BME280;2933;52.302;8.134;2022-12-07T04:41:36;100376.03;;;1.22;100.00
5814;BME280;2933;52.302;8.134;2022-12-07T04:46:38;100393.81;;;1.32;100.00
5814;BME280;2933;52.302;8.134;2022-12-07T04:51:42;100387.84;;;1.31;100.00
5814;BME280;2933;52.302;8.134;2022-12-07T04:56:44;100381.78;;;1.34;100.00
5814;BME280;2933;52.302;8.134;2022-12-07T05:01:47;100392.84;;;1.37;100.00
5814;BME280;2933;52.302;8.134;2022-12-07T05:06:51;100379.16;;;1.35;100.00
5814;BME280;2933;52.302;8.134;2022-12-07T05:11:52;100402.94;;;1.45;100.00
5814;BME280;2933;52.302;8.134;2022-12-07T05:16:54;100393.91;;;1.28;100.00
5814;BME280;2933;52.302;8.134;2022-12-07T05:21:57;100409.41;;;1.27;100.00
5814;BME280;2933;52.302;8.134;2022-12-07T05:26:59;100397.25;;;1.32;100.00
5814;BME280;2933;52.302;8.134;2022-12-07T05:32:08;100388.22;;;1.14;100.00
5814;BME280;2933;52.302;8.134;2022-12-07T05:37:19;100397.59;;;1.18;100.00
5814;BME280;2933;52.302;8.134;2022-12-07T05:42:23;100407.75;;;1.23;100.00
5814;BME280;2933;52.302;8.134;2022-12-07T05:47:25;100400.97;;;1.20;100.00
5814;BME280;2933;52.302;8.134;2022-12-07T05:52:28;100397.72;;;1.12;100.00
5814;BME280;2933;52.302;8.134;2022-12-07T05:57:29;100382.31;;;1.10;100.00
5814;BME280;2933;52.302;8.134;2022-12-07T06:02:31;100393.28;;;1.19;100.00
5814;BME280;2933;52.302;8.134;2022-12-07T06:07:34;100391.81;;;1.08;100.00
5814;BME280;2933;52.302;8.134;2022-12-07T06:12:35;100395.94;;;1.14;100.00
5814;BME280;2933;52.302;8.134;2022-12-07T06:17:39;100391.66;;;1.15;100.00
5814;BME280;2933;52.302;8.134;2022-12-07T06:22:42;100397.66;;;1.15;100.00
5814;BME280;2933;52.302;8.134;2022-12-07T06:27:44;100339.22;;;0.83;100.00
5814;BME280;2933;52.302;8.134;2022-12-07T06:32:45;100390.91;;;1.11;100.00
5814;BME280;2933;52.302;8.134;2022-12-07T06:37:48;100384.81;;;1.13;100.00
5814;BME280;2933;52.302;8.134;2022-12-07T06:42:50;100388.38;;;1.08;100.00
5814;BME280;2933;52.302;8.134;2022-12-07T06:48:08;100372.25;;;1.01;100.00
5814;BME280;2933;52.302;8.134;2022-12-07T06:53:11;100379.19;;;0.98;100.00
5814;BME280;2933;52.302;8.134;2022-12-07T06:58:13;100380.03;;;0.98;100.00
5814;BME280;2933;52.302;8.134;2022-12-07T07:03:19;100387.75;;;0.98;100.00
5814;BME280;2933;52.302;8.134;2022-12-07T07:08:26;100398.72;;;1.06;100.00
5814;BME280;2933;52.302;8.134;2022-12-07T07:13:34;100396.47;;;0.92;100.00
5814;BME280;2933;52.302;8.134;2022-12-07T07:18:37;100363.47;;;0.71;100.00
5814;BME280;2933;52.302;8.134;2022-12-07T07:23:51;100389.75;;;0.85;100.00
5814;BME280;2933;52.302;8.134;2022-12-07T07:28:55;100425.84;;;1.20;100.00
5814;BME280;2933;52.302;8.134;2022-12-07T07:33:57;100425.13;;;1.13;100.00
5814;BME280;2933;52.302;8.134;2022-12-07T07:39:00;100419.97;;;1.13;100.00
5814;BME280;2933;52.302;8.134;2022-12-07T07:44:02;100406.50;;;1.03;100.00
5814;BME280;2933;52.302;8.134;2022-12-07T07:49:09;100373.47;;;0.85;100.00
5814;BME280;2933;52.302;8.134;2022-12-07T07:54:27;100413.19;;;1.10;100.00
5814;BME280;2933;52.302;8.134;2022-12-07T07:59:28;100422.19;;;1.30;100.00
5814;BME280;2933;52.302;8.134;2022-12-07T08:04:30;100401.09;;;1.14;100.00
5814;BME280;2933;52.302;8.134;2022-12-07T08:09:33;100434.81;;;1.41;100.00
5814;BME280;2933;52.302;8.134;2022-12-07T08:14:35;100430.66;;;1.34;100.00
5814;BME280;2933;52.302;8.134;2022-12-07T08:19:37;100410.38;;;1.21;100.00
5814;BME280;2933;52.302;8.134;2022-12-07T08:24:41;100413.75;;;1.23;100.00
5814;BME280;2933;52.302;8.134;2022-12-07T08:29:42;100401.88;;;1.18;100.00
5814;BME280;2933;52.302;8.134;2022-12-07T08:34:44;100444.13;;;1.45;100.00
5814;BME280;2933;52.302;8.134;2022-12-07T08:39:48;100411.34;;;1.17;100.00
5814;BME280;2933;52.302;8.134;2022-12-07T08:44:50;100400.81;;;1.26;100.00
5814;BME280;2933;52.302;8.134;2022-12-07T08:49:52;100411.03;;;1.29;100.00
5814;BME280;2933;52.302;8.134;2022-12-07T08:54:56;100436.75;;;1.31;100.00
5814;BME280;2933;52.302;8.134;2022-12-07T08:59:58;100439.41;;;1.26;100.00
5814;BME280;2933;52.302;8.134;2022-12-07T09:05:00;100445.44;;;1.27;100.00
5814;BME280;2933;52.302;8.134;2022-12-07T09:10:03;100432.56;;;1.27;100.00
5814;BME280;2933;52.302;8.134;2022-12-07T09:15:06;100430.44;;;1.44;100.00
5814;BME280;2933;52.302;8.134;2022-12-07T09:20:09;100444.22;;;1.40;100.00
5814;BME280;2933;52.302;8.134;2022-12-07T09:25:12;100433.22;;;1.35;100.00
5814;BME280;2933;52.302;8.134;2022-12-07T09:30:14;100441.47;;;1.50;100.00
5814;BME280;2933;52.302;8.134;2022-12-07T09:35:15;100437.22;;;1.47;100.00
5814;BME280;2933;52.302;8.134;2022-12-07T09:40:21;100439.50;;;1.59;100.00
5814;BME280;2933;52.302;8.134;2022-12-07T09:45:25;100407.88;;;1.54;100.00
5814;BME280;2933;52.302;8.134;2022-12-07T09:50:28;100439.13;;;1.75;100.00
5814;BME280;2933;52.302;8.134;2022-12-07T09:55:33;100444.06;;;1.84;100.00
5814;BME280;2933;52.302;8.134;2022-12-07T10:00:35;100445.66;;;1.88;100.00
5814;BME280;2933;52.302;8.134;2022-12-07T10:05:39;100432.56;;;1.96;100.00
5814;BME280;2933;52.302;8.134;2022-12-07T10:10:48;100422.47;;;1.88;100.00
5814;BME280;2933;52.302;8.134;2022-12-07T10:15:52;100402.50;;;1.97;100.00
5814;BME280;2933;52.302;8.134;2022-12-07T10:26:29;100422.44;;;2.23;100.00
5814;BME280;2933;52.302;8.134;2022-12-07T10:31:30;100424.50;;;2.40;100.00
5814;BME280;2933;52.302;8.134;2022-12-07T10:36:35;100411.91;;;2.61;100.00
5814;BME280;2933;52.302;8.134;2022-12-07T10:41:52;100410.75;;;2.71;100.00
5814;BME280;2933;52.302;8.134;2022-12-07T10:47:17;100407.97;;;2.79;100.00
5814;BME280;2933;52.302;8.134;2022-12-07T10:52:34;100400.25;;;2.77;100.00
5814;BME280;2933;52.302;8.134;2022-12-07T10:57:49;100400.03;;;2.85;100.00
5814;BME280;2933;52.302;8.134;2022-12-07T11:03:08;100394.91;;;2.83;100.00
5814;BME280;2933;52.302;8.134;2022-12-07T11:08:21;100398.47;;;2.79;100.00
5814;BME280;2933;52.302;8.134;2022-12-07T11:13:41;100399.31;;;2.80;100.00
5814;BME280;2933;52.302;8.134;2022-12-07T11:18:56;100397.44;;;2.85;100.00
5814;BME280;2933;52.302;8.134;2022-12-07T11:24:03;100374.81;;;2.93;100.00
5814;BME280;2933;52.302;8.134;2022-12-07T11:29:21;100391.09;;;3.23;100.00
5814;BME280;2933;52.302;8.134;2022-12-07T11:34:37;100383.97;;;3.30;100.00
5814;BME280;2933;52.302;8.134;2022-12-07T11:39:44;100371.94;;;3.31;100.00
5814;BME280;2933;52.302;8.134;2022-12-07T11:44:51;100371.28;;;3.24;100.00
5814;BME280;2933;52.302;8.134;2022-12-07T11:49:58;100359.91;;;3.30;100.00
5814;BME280;2933;52.302;8.134;2022-12-07T11:55:05;100352.16;;;3.30;100.00
5814;BME280;2933;52.302;8.134;2022-12-07T12:00:18;100337.56;;;3.29;100.00
5814;BME280;2933;52.302;8.134;2022-12-07T12:05:22;100341.78;;;3.31;100.00
5814;BME280;2933;52.302;8.134;2022-12-07T12:10:27;100341.44;;;3.42;100.00
5814;BME280;2933;52.302;8.134;2022-12-07T12:15:47;100327.44;;;3.48;100.00
5814;BME280;2933;52.302;8.134;2022-12-07T12:20:55;100328.47;;;3.44;100.00
5814;BME280;2933;52.302;8.134;2022-12-07T12:26:00;100322.06;;;3.54;100.00
5814;BME280;2933;52.302;8.134;2022-12-07T12:31:15;100325.78;;;3.72;100.00
5814;BME280;2933;52.302;8.134;2022-12-07T12:36:25;100318.97;;;3.69;100.00
5814;BME280;2933;52.302;8.134;2022-12-07T12:41:54;100308.66;;;3.69;100.00
5814;BME280;2933;52.302;8.134;2022-12-07T12:53:16;100303.34;;;3.72;100.00
5814;BME280;2933;52.302;8.134;2022-12-07T12:58:29;100300.94;;;3.68;100.00
5814;BME280;2933;52.302;8.134;2022-12-07T13:03:31;100305.06;;;3.74;100.00
5814;BME280;2933;52.302;8.134;2022-12-07T13:08:40;100300.94;;;3.68;100.00
5814;BME280;2933;52.302;8.134;2022-12-07T13:13:42;100317.91;;;3.75;100.00
5814;BME280;2933;52.302;8.134;2022-12-07T13:18:43;100305.19;;;3.69;100.00
5814;BME280;2933;52.302;8.134;2022-12-07T13:23:55;100294.13;;;3.65;100.00
5814;BME280;2933;52.302;8.134;2022-12-07T13:29:05;100299.09;;;3.71;100.00
5814;BME280;2933;52.302;8.134;2022-12-07T13:34:30;100287.34;;;3.86;100.00
5814;BME280;2933;52.302;8.134;2022-12-07T13:39:34;100273.69;;;3.83;100.00
5814;BME280;2933;52.302;8.134;2022-12-07T13:44:40;100271.09;;;3.84;100.00
5814;BME280;2933;52.302;8.134;2022-12-07T13:49:48;100257.50;;;3.79;100.00
5814;BME280;2933;52.302;8.134;2022-12-07T13:54:58;100256.06;;;3.70;100.00
5814;BME280;2933;52.302;8.134;2022-12-07T14:00:02;100256.56;;;3.56;100.00
5814;BME280;2933;52.302;8.134;2022-12-07T14:05:09;100258.59;;;3.48;100.00
5814;BME280;2933;52.302;8.134;2022-12-07T14:10:24;100260.31;;;3.48;100.00
5814;BME280;2933;52.302;8.134;2022-12-07T14:15:28;100248.88;;;3.55;100.00
5814;BME280;2933;52.302;8.134;2022-12-07T14:20:32;100258.38;;;3.54;100.00
5814;BME280;2933;52.302;8.134;2022-12-07T14:25:45;100257.22;;;3.62;100.00
5814;BME280;2933;52.302;8.134;2022-12-07T14:30:46;100240.31;;;3.53;100.00
5814;BME280;2933;52.302;8.134;2022-12-07T14:35:48;100243.31;;;3.42;100.00
5814;BME280;2933;52.302;8.134;2022-12-07T14:40:52;100251.81;;;3.44;100.00
5814;BME280;2933;52.302;8.134;2022-12-07T14:45:54;100255.50;;;3.12;100.00
5814;BME280;2933;52.302;8.134;2022-12-07T14:50:56;100253.19;;;2.77;100.00
5814;BME280;2933;52.302;8.134;2022-12-07T14:55:58;100252.88;;;2.33;100.00
5814;BME280;2933;52.302;8.134;2022-12-07T15:01:00;100233.75;;;2.12;100.00
5814;BME280;2933;52.302;8.134;2022-12-07T15:06:03;100232.81;;;2.14;100.00
5814;BME280;2933;52.302;8.134;2022-12-07T15:11:09;100229.66;;;2.04;100.00
5814;BME280;2933;52.302;8.134;2022-12-07T15:16:13;100236.75;;;1.96;100.00
5814;BME280;2933;52.302;8.134;2022-12-07T15:21:17;100228.25;;;1.94;100.00
5814;BME280;2933;52.302;8.134;2022-12-07T15:26:20;100232.41;;;1.98;100.00
5814;BME280;2933;52.302;8.134;2022-12-07T15:31:22;100231.59;;;1.96;100.00
5814;BME280;2933;52.302;8.134;2022-12-07T15:36:26;100233.78;;;1.80;100.00
5814;BME280;2933;52.302;8.134;2022-12-07T15:41:29;100230.38;;;1.80;100.00
5814;BME280;2933;52.302;8.134;2022-12-07T15:46:32;100227.03;;;1.76;100.00
5814;BME280;2933;52.302;8.134;2022-12-07T15:51:33;100223.06;;;1.66;100.00
5814;BME280;2933;52.302;8.134;2022-12-07T15:56:36;100224.91;;;1.60;100.00
5814;BME280;2933;52.302;8.134;2022-12-07T16:01:38;100214.84;;;1.51;100.00
5814;BME280;2933;52.302;8.134;2022-12-07T16:06:39;100202.88;;;1.50;100.00
5814;BME280;2933;52.302;8.134;2022-12-07T16:11:42;100219.06;;;1.54;100.00
5814;BME280;2933;52.302;8.134;2022-12-07T16:16:44;100213.91;;;1.54;100.00
5814;BME280;2933;52.302;8.134;2022-12-07T16:21:45;100209.31;;;1.65;100.00
5814;BME280;2933;52.302;8.134;2022-12-07T16:26:49;100204.97;;;1.67;100.00
5814;BME280;2933;52.302;8.134;2022-12-07T16:31:51;100207.31;;;1.75;100.00
5814;BME280;2933;52.302;8.134;2022-12-07T16:36:53;100206.25;;;1.82;100.00
5814;BME280;2933;52.302;8.134;2022-12-07T16:41:56;100195.91;;;1.84;100.00
5814;BME280;2933;52.302;8.134;2022-12-07T16:46:57;100201.75;;;1.90;100.00
5814;BME280;2933;52.302;8.134;2022-12-07T16:51:59;100192.31;;;1.89;100.00
5814;BME280;2933;52.302;8.134;2022-12-07T16:57:02;100187.03;;;1.94;100.00
5814;BME280;2933;52.302;8.134;2022-12-07T17:02:03;100183.78;;;1.87;100.00
5814;BME280;2933;52.302;8.134;2022-12-07T17:07:09;100162.75;;;1.73;100.00
5814;BME280;2933;52.302;8.134;2022-12-07T17:12:12;100127.25;;;1.54;100.00
5814;BME280;2933;52.302;8.134;2022-12-07T17:17:18;100157.72;;;1.68;100.00
5814;BME280;2933;52.302;8.134;2022-12-07T17:22:20;100161.53;;;1.85;100.00
5814;BME280;2933;52.302;8.134;2022-12-07T17:27:30;100143.22;;;1.66;100.00
5814;BME280;2933;52.302;8.134;2022-12-07T17:32:35;100146.75;;;1.61;100.00
5814;BME280;2933;52.302;8.134;2022-12-07T17:37:47;100114.91;;;1.36;100.00
5814;BME280;2933;52.302;8.134;2022-12-07T17:42:51;100096.78;;;1.39;100.00
5814;BME280;2933;52.302;8.134;2022-12-07T17:47:53;100095.81;;;1.43;100.00
5814;BME280;2933;52.302;8.134;2022-12-07T17:52:59;100143.81;;;1.74;100.00
5814;BME280;2933;52.302;8.134;2022-12-07T17:58:17;100132.81;;;1.69;100.00
5814;BME280;2933;52.302;8.134;2022-12-07T18:03:19;100136.09;;;1.74;100.00
5814;BME280;2933;52.302;8.134;2022-12-07T18:08:21;100082.84;;;1.46;100.00
5814;BME280;2933;52.302;8.134;2022-12-07T18:13:30;100093.03;;;1.51;100.00
5814;BME280;2933;52.302;8.134;2022-12-07T18:18:41;100080.22;;;1.48;100.00
5814;BME280;2933;52.302;8.134;2022-12-07T18:23:44;100112.97;;;1.72;100.00
5814;BME280;2933;52.302;8.134;2022-12-07T18:28:47;100114.03;;;1.65;100.00
5814;BME280;2933;52.302;8.134;2022-12-07T18:33:49;100118.25;;;1.68;100.00
5814;BME280;2933;52.302;8.134;2022-12-07T18:38:55;100112.97;;;1.72;100.00
5814;BME280;2933;52.302;8.134;2022-12-07T18:43:58;100109.81;;;1.63;100.00
5814;BME280;2933;52.302;8.134;2022-12-07T18:48:59;100061.38;;;1.47;100.00
5814;BME280;2933;52.302;8.134;2022-12-07T18:54:02;100104.44;;;1.70;100.00
5814;BME280;2933;52.302;8.134;2022-12-07T18:59:05;100098.78;;;1.59;100.00
5814;BME280;2933;52.302;8.134;2022-12-07T19:04:24;100097.09;;;1.58;100.00
5814;BME280;2933;52.302;8.134;2022-12-07T19:09:26;100108.75;;;1.70;100.00
5814;BME280;2933;52.302;8.134;2022-12-07T19:14:32;100085.75;;;1.64;100.00
5814;BME280;2933;52.302;8.134;2022-12-07T19:19:35;100086.88;;;1.55;100.00
5814;BME280;2933;52.302;8.134;2022-12-07T19:24:37;100083.56;;;1.51;100.00
5814;BME280;2933;52.302;8.134;2022-12-07T19:29:41;100055.56;;;1.40;100.00
5814;BME280;2933;52.302;8.134;2022-12-07T19:34:44;100068.28;;;1.45;100.00
5814;BME280;2933;52.302;8.134;2022-12-07T19:39:47;100057.00;;;1.49;100.00
5814;BME280;2933;52.302;8.134;2022-12-07T19:44:52;100059.41;;;1.55;100.00
5814;BME280;2933;52.302;8.134;2022-12-07T19:49:54;100054.78;;;1.67;100.00
5814;BME280;2933;52.302;8.134;2022-12-07T19:54:57;100046.56;;;1.54;100.00
5814;BME280;2933;52.302;8.134;2022-12-07T20:00:00;100068.56;;;1.64;100.00
5814;BME280;2933;52.302;8.134;2022-12-07T20:05:01;100054.97;;;1.60;100.00
5814;BME280;2933;52.302;8.134;2022-12-07T20:10:04;100042.63;;;1.70;100.00
5814;BME280;2933;52.302;8.134;2022-12-07T20:15:08;100030.75;;;1.66;100.00
5814;BME280;2933;52.302;8.134;2022-12-07T20:20:10;100021.13;;;1.73;100.00
5814;BME280;2933;52.302;8.134;2022-12-07T20:25:12;100024.56;;;1.72;100.00
5814;BME280;2933;52.302;8.134;2022-12-07T20:30:18;100021.88;;;1.75;100.00
5814;BME280;2933;52.302;8.134;2022-12-07T20:35:19;100009.13;;;1.72;100.00
5814;BME280;2933;52.302;8.134;2022-12-07T20:40:21;100006.69;;;1.67;100.00
5814;BME280;2933;52.302;8.134;2022-12-07T20:45:24;99989.59;;;1.65;100.00
5814;BME280;2933;52.302;8.134;2022-12-07T20:50:25;100003.28;;;1.67;100.00
5814;BME280;2933;52.302;8.134;2022-12-07T20:55:27;99994.94;;;1.58;100.00
5814;BME280;2933;52.302;8.134;2022-12-07T21:00:31;99994.31;;;1.52;100.00
5814;BME280;2933;52.302;8.134;2022-12-07T21:05:33;99979.75;;;1.51;100.00
5814;BME280;2933;52.302;8.134;2022-12-07T21:10:35;99996.69;;;1.58;100.00
5814;BME280;2933;52.302;8.134;2022-12-07T21:15:38;99987.81;;;1.40;100.00
5814;BME280;2933;52.302;8.134;2022-12-07T21:20:40;99984.91;;;1.51;100.00
5814;BME280;2933;52.302;8.134;2022-12-07T21:25:41;99990.69;;;1.57;100.00
5814;BME280;2933;52.302;8.134;2022-12-07T21:30:44;99986.59;;;1.52;100.00
5814;BME280;2933;52.302;8.134;2022-12-07T21:35:46;99982.13;;;1.57;100.00
5814;BME280;2933;52.302;8.134;2022-12-07T21:40:47;99933.13;;;1.32;100.00
5814;BME280;2933;52.302;8.134;2022-12-07T21:45:54;99957.09;;;1.34;100.00
5814;BME280;2933;52.302;8.134;2022-12-07T21:51:07;99922.22;;;1.25;100.00
5814;BME280;2933;52.302;8.134;2022-12-07T21:56:15;99970.22;;;1.53;100.00
5814;BME280;2933;52.302;8.134;2022-12-07T22:01:23;99945.22;;;1.29;100.00
5814;BME280;2933;52.302;8.134;2022-12-07T22:06:25;99961.81;;;1.48;100.00
5814;BME280;2933;52.302;8.134;2022-12-07T22:11:45;99936.53;;;1.34;100.00
5814;BME280;2933;52.302;8.134;2022-12-07T22:16:48;99943.34;;;1.35;100.00
5814;BME280;2933;52.302;8.134;2022-12-07T22:21:52;99944.94;;;1.39;100.00
5814;BME280;2933;52.302;8.134;2022-12-07T22:26:54;99959.16;;;1.51;100.00
5814;BME280;2933;52.302;8.134;2022-12-07T22:32:00;99948.19;;;1.45;100.00
5814;BME280;2933;52.302;8.134;2022-12-07T22:37:02;99942.59;;;1.31;100.00
5814;BME280;2933;52.302;8.134;2022-12-07T22:42:07;99928.06;;;1.30;100.00
5814;BME280;2933;52.302;8.134;2022-12-07T22:47:12;99935.69;;;1.33;100.00
5814;BME280;2933;52.302;8.134;2022-12-07T22:52:13;99941.34;;;1.44;100.00
5814;BME280;2933;52.302;8.134;2022-12-07T22:57:15;99935.72;;;1.32;100.00
5814;BME280;2933;52.302;8.134;2022-12-07T23:02:18;99918.41;;;1.37;100.00
5814;BME280;2933;52.302;8.134;2022-12-07T23:07:19;99887.28;;;1.18;100.00
5814;BME280;2933;52.302;8.134;2022-12-07T23:12:21;99909.94;;;1.33;100.00
5814;BME280;2933;52.302;8.134;2022-12-07T23:17:44;99894.00;;;1.22;100.00
5814;BME280;2933;52.302;8.134;2022-12-07T23:22:45;99903.19;;;1.29;100.00
5814;BME280;2933;52.302;8.134;2022-12-07T23:27:47;99898.91;;;1.29;100.00
5814;BME280;2933;52.302;8.134;2022-12-07T23:32:50;99875.75;;;1.29;100.00
5814;BME280;2933;52.302;8.134;2022-12-07T23:37:51;99847.16;;;1.12;100.00
5814;BME280;2933;52.302;8.134;2022-12-07T23:42:53;99873.22;;;1.28;100.00
5814;BME280;2933;52.302;8.134;2022-12-07T23:47:56;99859.84;;;1.17;100.00
5814;BME280;2933;52.302;8.134;2022-12-07T23:52:57;99858.91;;;1.19;100.00
5814;BME280;2933;52.302;8.134;2022-12-07T23:57:59;99861.59;;;1.16;100.00
